createdAt,value
2024-04-10T00:01:56.163Z,6.90
2024-04-10T00:07:01.693Z,6.80
2024-04-10T00:12:07.638Z,6.70
2024-04-10T00:17:15.817Z,6.70
2024-04-10T00:22:21.310Z,6.60
2024-04-10T00:27:26.654Z,6.70
2024-04-10T00:32:35.033Z,6.60
2024-04-10T00:37:40.729Z,6.60
2024-04-10T00:42:46.452Z,6.40
2024-04-10T00:47:54.724Z,6.30
2024-04-10T00:53:00.280Z,6.20
2024-04-10T00:58:05.608Z,6.00
2024-04-10T01:03:14.054Z,6.10
2024-04-10T01:08:20.532Z,6.10
2024-04-10T01:13:26.061Z,5.90
2024-04-10T01:18:34.614Z,5.90
2024-04-10T01:23:42.799Z,5.80
2024-04-10T01:28:49.890Z,5.80
2024-04-10T01:33:55.575Z,5.80
2024-04-10T01:39:05.393Z,5.80
2024-04-10T01:44:10.908Z,6.00
2024-04-10T01:49:16.212Z,6.00
2024-04-10T01:54:25.394Z,6.20
2024-04-10T01:59:30.763Z,6.20
2024-04-10T02:04:36.119Z,6.30
2024-04-10T02:09:44.248Z,6.30
2024-04-10T02:14:49.544Z,6.10
2024-04-10T02:19:55.024Z,6.00
2024-04-10T02:25:03.067Z,5.80
2024-04-10T02:30:11.671Z,5.70
2024-04-10T02:35:17.247Z,5.60
2024-04-10T02:40:30.705Z,5.50
2024-04-10T02:45:36.364Z,5.40
2024-04-10T02:50:41.666Z,5.20
2024-04-10T02:55:50.252Z,5.10
2024-04-10T03:00:56.808Z,5.00
2024-04-10T03:06:05.808Z,4.90
2024-04-10T03:11:15.847Z,4.60
2024-04-10T03:16:21.385Z,4.50
2024-04-10T03:21:27.989Z,4.30
2024-04-10T03:26:36.020Z,4.10
2024-04-10T03:31:41.654Z,4.00
2024-04-10T03:36:47.008Z,4.00
2024-04-10T03:41:55.193Z,3.90
2024-04-10T03:47:00.449Z,3.90
2024-04-10T03:52:05.832Z,3.70
2024-04-10T03:57:14.104Z,3.60
2024-04-10T04:02:19.543Z,3.50
2024-04-10T04:07:26.074Z,3.50
2024-04-10T04:12:34.259Z,3.50
2024-04-10T04:17:39.965Z,3.70
2024-04-10T04:22:45.195Z,3.80
2024-04-10T04:27:53.071Z,3.90
2024-04-10T04:32:58.796Z,3.90
2024-04-10T04:38:04.233Z,3.90
2024-04-10T04:43:12.454Z,4.00
2024-04-10T04:48:19.154Z,3.90
2024-04-10T04:53:25.070Z,3.80
2024-04-10T04:58:33.483Z,4.00
2024-04-10T05:03:55.221Z,4.20
2024-04-10T05:09:06.267Z,4.30
2024-04-10T05:14:15.128Z,4.50
2024-04-10T05:19:21.519Z,4.50
2024-04-10T05:24:28.148Z,4.70
2024-04-10T05:29:36.519Z,4.90
2024-04-10T05:34:41.632Z,5.10
2024-04-10T05:39:47.111Z,5.30
2024-04-10T05:44:55.209Z,5.50
2024-04-10T05:50:00.614Z,5.70
2024-04-10T05:55:06.601Z,5.90
2024-04-10T06:00:15.934Z,6.10
2024-04-10T06:05:21.444Z,6.30
2024-04-10T06:10:26.860Z,6.50
2024-04-10T06:15:36.919Z,6.60
2024-04-10T06:20:42.497Z,6.70
2024-04-10T06:25:48.085Z,6.80
2024-04-10T06:31:03.440Z,7.00
2024-04-10T06:36:11.241Z,7.10
2024-04-10T06:41:16.730Z,7.30
2024-04-10T06:46:24.848Z,7.50
2024-04-10T06:51:31.518Z,7.70
2024-04-10T06:56:37.031Z,8.10
2024-04-10T07:01:45.236Z,8.40
2024-04-10T07:06:51.823Z,8.60
2024-04-10T07:11:57.349Z,8.70
2024-04-10T07:17:06.019Z,8.90
2024-04-10T07:22:11.424Z,9.20
2024-04-10T07:27:16.640Z,9.20
2024-04-10T07:32:28.309Z,9.40
2024-04-10T07:37:46.825Z,9.60
2024-04-10T07:42:59.026Z,10.00
2024-04-10T07:48:09.576Z,10.50
2024-04-10T07:53:18.392Z,11.00
2024-04-10T07:58:24.101Z,11.20
2024-04-10T08:03:33.816Z,11.30
2024-04-10T08:08:41.649Z,11.70
2024-04-10T08:13:47.477Z,12.70
2024-04-10T08:18:56.414Z,13.00
2024-04-10T08:24:02.811Z,12.80
2024-04-10T08:29:10.790Z,13.30
2024-04-10T08:34:21.125Z,14.30
2024-04-10T08:39:26.898Z,14.40
2024-04-10T08:44:33.369Z,14.60
2024-04-10T08:49:43.809Z,14.00
2024-04-10T08:54:50.019Z,14.70
2024-04-10T08:59:55.532Z,15.80
2024-04-10T09:05:04.098Z,16.90
2024-04-10T09:10:55.414Z,15.50
2024-04-10T09:16:05.340Z,16.80
2024-04-10T09:21:41.795Z,19.10
2024-04-10T09:54:05.064Z,21.40
2024-04-10T10:04:34.632Z,18.30
2024-04-10T10:09:51.805Z,15.70
2024-04-10T10:14:57.380Z,14.00
2024-04-10T10:20:22.925Z,13.30
2024-04-10T10:25:31.652Z,12.60
2024-04-10T10:30:46.280Z,12.30
2024-04-10T10:35:54.339Z,12.60
2024-04-10T10:41:25.606Z,12.70
2024-04-10T10:46:31.173Z,13.30
2024-04-10T10:51:43.804Z,14.80
2024-04-10T10:56:52.246Z,16.40
2024-04-10T11:01:57.825Z,16.80
2024-04-10T11:07:17.825Z,17.30
2024-04-10T11:12:50.003Z,17.50
2024-04-10T11:18:05.767Z,18.10
2024-04-10T11:23:12.002Z,17.20
2024-04-10T11:28:20.674Z,15.60
2024-04-10T11:33:26.283Z,15.20
2024-04-10T11:38:32.962Z,14.70
2024-04-10T11:43:56.790Z,14.40
2024-04-10T11:49:08.526Z,14.60
2024-04-10T11:54:22.492Z,15.70
2024-04-10T11:59:30.941Z,16.70
2024-04-10T12:04:36.561Z,16.20
2024-04-10T12:09:44.003Z,15.70
2024-04-10T12:15:11.870Z,14.90
2024-04-10T12:20:18.725Z,15.50
2024-04-10T12:25:30.679Z,15.40
2024-04-10T12:30:40.717Z,16.40
2024-04-10T12:36:08.205Z,17.30
2024-04-10T12:41:14.011Z,18.00
2024-04-10T12:46:29.012Z,18.30
2024-04-10T12:51:41.455Z,17.20
2024-04-10T12:56:57.382Z,16.80
2024-04-10T13:02:08.378Z,16.20
2024-04-10T13:07:14.824Z,16.20
2024-04-10T13:12:29.262Z,15.90
2024-04-10T13:17:44.439Z,15.30
2024-04-10T13:22:51.508Z,14.90
2024-04-10T13:27:58.175Z,14.90
2024-04-10T13:33:16.509Z,15.70
2024-04-10T13:38:22.191Z,15.90
2024-04-10T13:43:27.727Z,15.50
2024-04-10T13:48:38.621Z,15.40
2024-04-10T13:53:44.552Z,15.60
2024-04-10T13:59:14.635Z,16.10
2024-04-10T14:04:41.503Z,15.40
2024-04-10T14:09:49.678Z,14.80
2024-04-10T14:14:56.373Z,14.80
2024-04-10T14:20:12.005Z,14.00
2024-04-10T14:25:19.788Z,14.20
2024-04-10T14:30:27.145Z,14.60
2024-04-10T14:41:00.883Z,15.20
2024-04-10T14:46:14.328Z,15.40
2024-04-10T14:51:27.810Z,15.60
2024-04-10T14:56:37.957Z,16.30
2024-04-10T15:01:44.390Z,16.50
2024-04-10T15:06:53.010Z,15.20
2024-04-10T15:11:58.707Z,14.40
2024-04-10T15:17:04.128Z,14.00
2024-04-10T15:22:12.822Z,14.00
2024-04-10T15:27:18.340Z,14.00
2024-04-10T15:32:24.988Z,13.90
2024-04-10T15:37:34.173Z,13.70
2024-04-10T15:42:39.707Z,13.60
2024-04-10T15:47:45.571Z,13.10
2024-04-10T15:52:54.489Z,12.90
2024-04-10T15:58:00.054Z,13.10
2024-04-10T16:03:06.114Z,13.40
2024-04-10T16:08:14.690Z,13.70
2024-04-10T16:13:20.245Z,13.70
2024-04-10T16:18:26.296Z,13.40
2024-04-10T16:23:34.738Z,13.00
2024-04-10T16:28:41.748Z,12.70
2024-04-10T16:33:49.870Z,12.40
2024-04-10T16:38:58.846Z,12.40
2024-04-10T16:44:04.373Z,12.40
2024-04-10T16:49:16.749Z,12.50
2024-04-10T16:54:26.236Z,12.40
2024-04-10T16:59:40.153Z,12.40
2024-04-10T17:04:49.225Z,12.40
2024-04-10T17:09:57.699Z,12.30
2024-04-10T17:26:32.138Z,12.00
2024-04-10T17:31:38.128Z,11.80
2024-04-10T17:36:53.103Z,11.70
2024-04-10T17:42:01.560Z,11.60
2024-04-10T17:59:22.550Z,11.10
2024-04-10T18:04:37.114Z,10.90
2024-04-10T18:09:44.934Z,10.80
2024-04-10T18:14:57.918Z,10.60
2024-04-10T18:20:06.050Z,10.40
2024-04-10T18:25:14.479Z,10.20
2024-04-10T18:30:23.012Z,9.90
2024-04-10T18:35:28.823Z,9.70
2024-04-10T18:41:02.939Z,9.50
2024-04-10T18:46:16.181Z,9.30
2024-04-10T18:51:24.471Z,9.10
2024-04-10T18:56:30.283Z,8.90
2024-04-10T19:01:38.612Z,8.70
2024-04-10T19:06:54.245Z,8.60
2024-04-10T19:12:01.150Z,8.60
2024-04-10T19:17:10.795Z,8.50
2024-04-10T19:22:17.492Z,8.40
2024-04-10T19:27:24.970Z,8.40
2024-04-10T19:32:42.453Z,8.30
2024-04-10T19:37:54.928Z,8.00
2024-04-10T19:43:00.314Z,7.90
2024-04-10T19:48:09.326Z,7.70
2024-04-10T19:53:17.040Z,7.50
2024-04-10T19:58:31.983Z,7.40
2024-04-10T20:03:42.674Z,7.30
2024-04-10T20:08:50.276Z,7.20
2024-04-10T20:13:57.143Z,7.00
2024-04-10T20:19:06.901Z,6.80
2024-04-10T20:24:12.741Z,6.80
2024-04-10T20:29:18.314Z,6.50
2024-04-10T20:34:26.611Z,6.40
2024-04-10T20:39:33.843Z,6.20
2024-04-10T20:44:40.106Z,6.20
2024-04-10T20:49:49.823Z,6.20
2024-04-10T20:55:03.460Z,6.10
2024-04-10T21:00:14.719Z,5.90
2024-04-10T21:05:22.640Z,5.80
2024-04-10T21:10:43.903Z,5.70
2024-04-10T21:16:05.248Z,5.60
2024-04-10T21:21:29.154Z,5.50
2024-04-10T21:26:50.626Z,5.60
2024-04-10T21:32:13.603Z,5.50
2024-04-10T21:37:37.382Z,5.40
2024-04-10T21:42:58.910Z,5.30
2024-04-10T21:48:20.313Z,5.20
2024-04-10T21:53:44.469Z,5.10
2024-04-10T21:59:08.278Z,5.00
2024-04-10T22:04:30.121Z,4.90
2024-04-10T22:09:35.641Z,4.90
2024-04-10T22:14:41.273Z,4.80
2024-04-10T22:20:02.707Z,4.80
2024-04-10T22:25:16.820Z,4.70
2024-04-10T22:30:23.247Z,4.50
2024-04-10T22:35:28.834Z,4.40
2024-04-10T22:40:40.837Z,4.40
2024-04-10T22:45:46.461Z,4.30
2024-04-10T22:50:52.428Z,4.20
2024-04-10T22:56:05.122Z,4.00
2024-04-10T23:01:16.599Z,4.00
2024-04-10T23:06:22.988Z,3.90
2024-04-10T23:11:31.421Z,3.90
2024-04-10T23:16:36.683Z,3.90
2024-04-10T23:21:42.223Z,3.80
2024-04-10T23:26:50.395Z,3.80
2024-04-10T23:31:56.115Z,3.80
2024-04-10T23:37:01.307Z,4.00
2024-04-10T23:42:09.665Z,4.10
2024-04-10T23:47:14.992Z,4.10
2024-04-10T23:52:20.216Z,4.00
2024-04-10T23:57:28.228Z,3.90
